Terminal Aerodrome Forecast
Issued by NWS Shreveport, LA

Home | Current Version | Previous Version | Text Only | Print | Product List | Glossary On
Versions: 1 2 3 4 5 6 7 8 9 10 11 12 13 14 15 16 17 18 19
000
FTUS44 KSHV 280018 AAB
TAFLFK
TAF AMD
KLFK 280018Z 2800/2824 17006KT P6SM VCTS FEW040CB SCT050
      TEMPO 2800/2802 VRB15G25KT 3SM -TSRA OVC040CB
     FM280200 15006KT P6SM BKN250
      TEMPO 2810/2814 5SM BR SCT010 BKN020
     FM281500 12006KT P6SM SCT025 BKN035
     FM282000 13010KT P6SM SCT050=

USA.gov is the U.S. government's official web portal to all federal, state and local government web resources and services.